Latest Weather Observations for Port Fairy

IDV60801

Issued at 1:05 pm EST Saturday 23 August 2014 (issued every 30 minutes, with the page automatically refreshed every 10 minutes)

About weather observations | Map of weather stations | Latest weather observations for VIC | Other Formats
Station Details ID: 090175 Name: PORT FAIRY AWS Lat: -38.39 Lon: 142.23 Height: 10.0 m
Data from the previous 72 hours. | See also: Recent months at Port Fairy
Date/Time
EST
Temp
°C
App
Temp
°C
Dew
Point
Rel
Hum
%
Delta-T
°C
Wind Press
QNH
hPa
Press
MSL
hPa
Rain
since 9 am
mm
Dir
 
Spd
km/h
Gust
km/h
Spd
kts
Gust
kts
23/01:00pm 17.6 14.1 10.9 65 3.6 NNE 20 28 11 15 1021.2 1021.2 0.0
23/12:30pm 17.9 15.3 10.8 63 3.8 NNE 15 22 8 12 1021.8 1021.8 0.0
23/12:00pm 17.8 14.5 10.9 64 3.7 NNE 19 30 10 16 1022.3 1022.3 0.0
23/11:30am 16.9 12.9 10.5 66 3.4 NNE 22 32 12 17 1022.7 1022.7 0.0
23/11:00am 16.4 13.1 10.9 70 2.9 NNE 19 30 10 16 1023.3 1023.3 0.0
23/10:30am 15.2 12.2 10.6 74 2.4 NNE 17 28 9 15 1023.7 1023.7 0.0
23/10:00am 14.0 11.3 10.2 78 2.0 NNE 15 24 8 13 1023.9 1023.9 0.0
23/09:30am 11.9 8.3 8.4 79 1.7 NNE 17 24 9 13 1024.2 1024.2 0.0
23/09:00am 11.2 7.5 7.9 80 1.6 NNE 17 24 9 13 1024.5 1024.5 0.0
23/08:30am 10.2 6.3 7.3 82 1.4 NNE 17 24 9 13 1024.8 1024.8 0.0
23/08:00am 9.8 6.3 7.1 83 1.3 NE 15 22 8 12 1024.7 1024.7 0.0
23/07:30am 8.8 5.1 6.3 84 1.1 NNE 15 22 8 12 1024.7 1024.7 0.0
23/07:00am 8.5 4.7 5.8 83 1.2 NNE 15 20 8 11 1024.8 1024.8 0.0
23/06:30am 8.7 5.7 5.8 82 1.3 NNE 11 19 6 10 1024.6 1024.6 0.0
23/06:00am 8.9 5.4 5.6 80 1.5 NNE 13 19 7 10 1024.7 1024.7 0.0
23/05:30am 8.9 5.4 5.5 79 1.5 NNE 13 20 7 11 1024.6 1024.6 0.0
23/05:00am 9.3 5.5 5.9 79 1.5 NNE 15 20 8 11 1024.5 1024.5 0.0
23/04:30am 9.3 5.9 5.7 78 1.6 NNE 13 22 7 12 1024.4 1024.4 0.0
23/04:00am 9.5 5.7 5.9 78 1.6 NNE 15 22 8 12 1024.3 1024.3 0.0
23/03:30am 9.5 5.7 5.7 77 1.7 NNE 15 20 8 11 1024.5 1024.5 0.0
23/03:00am 9.6 5.8 6.0 78 1.6 NNE 15 22 8 12 1024.7 1024.7 0.0
23/02:30am 9.4 5.6 5.8 78 1.6 NNE 15 22 8 12 1025.1 1025.1 0.0
23/02:00am 9.6 5.8 6.0 78 1.6 NNE 15 22 8 12 1025.4 1025.4 0.0
23/01:30am 9.5 6.1 5.7 77 1.7 NNE 13 20 7 11 1025.7 1025.8 0.0
23/01:00am 9.8 6.8 5.8 76 1.8 NNE 11 17 6 9 1025.9 1026.0 0.0
23/12:30am 9.8 6.7 5.6 75 1.9 NNE 11 19 6 10 1026.0 1026.1 0.0
23/12:00am 10.1 6.3 5.9 75 1.9 NNE 15 20 8 11 1025.9 1026.0 0.0
 
Date/Time
EST
Temp
°C
App
Temp
°C
Dew
Point
Rel
Hum
%
Delta-T
°C
Wind Press
QNH
hPa
Press
MSL
hPa
Rain
since 9 am
mm
Dir
 
Spd
km/h
Gust
km/h
Spd
kts
Gust
kts
22/11:30pm 10.5 6.8 6.1 74 2.0 NNE 15 22 8 12 1026.1 1026.2 0.0
22/11:00pm 10.8 7.1 6.2 73 2.1 NNE 15 22 8 12 1026.2 1026.3 0.0
22/10:30pm 10.9 7.2 6.3 73 2.2 NNE 15 22 8 12 1026.4 1026.5 0.0
22/10:00pm 11.1 7.4 6.5 73 2.2 NNE 15 20 8 11 1026.6 1026.7 0.0
22/09:30pm 11.2 7.9 6.3 72 2.3 NNE 13 19 7 10 1026.8 1026.9 0.0
22/09:00pm 11.6 8.3 6.5 71 2.4 NNE 13 20 7 11 1026.9 1027.0 0.0
22/08:30pm 12.1 8.9 7.0 71 2.4 NNE 13 22 7 12 1026.6 1026.7 0.0
22/08:00pm 12.0 9.2 7.1 72 2.3 NNE 11 15 6 8 1026.3 1026.4 0.0
22/07:30pm 12.7 10.9 8.0 73 2.3 NE 7 15 4 8 1026.1 1026.2 0.0
22/07:00pm 13.2 11.4 7.9 70 2.6 NE 7 9 4 5 1026.2 1026.3 0.0
22/06:30pm 13.9 11.7 7.9 67 3.0 NNE 9 13 5 7 1026.1 1026.2 0.0
22/06:00pm 14.6 12.5 8.1 65 3.2 NE 9 13 5 7 1025.9 1026.0 0.0
22/05:30pm 16.0 13.9 8.2 60 3.9 NNE 9 13 5 7 1025.9 1026.0 0.0
22/05:00pm 17.0 15.3 8.4 57 4.4 NNE 7 15 4 8 1025.7 1025.8 0.0
22/04:30pm 16.7 14.4 7.6 55 4.6 NNE 9 13 5 7 1025.8 1025.9 0.0
22/04:00pm 17.9 14.2 6.1 46 5.8 NNE 15 20 8 11 1025.9 1026.0 0.0
22/03:30pm 19.0 16.0 7.8 48 5.7 NNE 13 20 7 11 1026.0 1026.1 0.0
22/03:00pm 18.1 15.6 8.4 53 5.0 N 11 19 6 10 1026.2 1026.3 0.0
22/02:30pm 19.4 17.3 9.6 53 5.2 N 11 20 6 11 1026.4 1026.5 0.0
22/02:00pm 18.9 15.6 9.7 55 4.8 N 17 24 9 13 1026.7 1026.8 0.0
22/01:30pm 17.9 14.5 9.0 56 4.6 N 17 26 9 14 1027.0 1027.1 0.0
22/01:00pm 16.8 12.3 8.5 58 4.2 N 22 33 12 18 1027.3 1027.4 0.0
22/12:30pm 17.1 13.0 8.8 58 4.3 N 20 28 11 15 1027.7 1027.8 0.0
22/12:00pm 17.4 13.5 8.8 57 4.4 N 19 32 10 17 1028.2 1028.3 0.0
22/11:30am 16.6 12.2 8.8 60 4.0 N 22 37 12 20 1028.6 1028.7 0.0
22/11:00am 15.9 13.0 9.6 66 3.3 N 15 20 8 11 1028.9 1029.0 0.0
22/10:30am 13.7 11.9 9.4 75 2.2 NE 9 13 5 7 1029.1 1029.2 0.0
22/10:00am 13.9 12.9 10.3 79 1.9 NE 6 13 3 7 1029.1 1029.2 0.0
22/09:30am 10.0 8.6 7.3 83 1.3 N 4 6 2 3 1029.2 1029.3 0.0
22/09:00am 9.5 7.8 7.4 87 1.0 NNE 6 9 3 5 1029.3 1029.4 0.2
22/08:30am 8.5 6.7 7.1 91 0.7 NE 6 11 3 6 1029.2 1029.3 0.2
22/08:00am 5.3 2.3 4.1 92 0.5 NNE 9 13 5 7 1028.9 1029.0 0.2
22/07:30am 2.6 0.8 1.3 91 0.5 CALM 0 0 0 0 1028.7 1028.8 0.2
22/07:00am 3.5 0.7 2.2 91 0.5 N 6 7 3 4 1028.3 1028.4 0.2
22/06:30am 3.4 1.7 1.9 90 0.6 CALM 0 4 0 2 1028.3 1028.4 0.2
22/06:00am 4.3 1.5 3.0 91 0.5 N 7 9 4 5 1028.0 1028.1 0.2
22/05:30am 4.4 1.2 3.1 91 0.5 N 9 13 5 7 1028.0 1028.1 0.0
22/05:00am 4.0 0.7 2.7 91 0.5 ENE 9 11 5 6 1027.9 1028.0 0.0
22/04:30am 4.3 1.1 3.0 91 0.5 NNE 9 11 5 6 1027.7 1027.8 0.0
22/04:00am 4.3 1.1 3.0 91 0.5 ENE 9 11 5 6 1027.7 1027.8 0.0
22/03:30am 4.6 1.4 3.3 91 0.5 N 9 11 5 6 1027.7 1027.8 0.0
22/03:00am 4.6 1.4 3.3 91 0.5 N 9 13 5 7 1027.9 1028.0 0.0
22/02:30am 5.0 1.9 3.7 91 0.5 N 9 11 5 6 1027.9 1028.0 0.0
22/02:00am 5.3 2.7 4.0 91 0.5 N 7 13 4 7 1028.0 1028.1 0.0
22/01:30am 5.1 2.6 3.8 91 0.5 N 6 9 3 5 1028.1 1028.2 0.0
22/01:00am 5.7 2.8 4.5 92 0.5 NNE 9 11 5 6 1028.0 1028.1 0.0
22/12:30am 5.5 2.9 4.2 91 0.6 NNE 7 9 4 5 1028.0 1028.1 0.0
22/12:00am 5.4 3.0 4.1 91 0.5 NNE 6 9 3 5 1028.1 1028.2 0.0
 
Date/Time
EST
Temp
°C
App
Temp
°C
Dew
Point
Rel
Hum
%
Delta-T
°C
Wind Press
QNH
hPa
Press
MSL
hPa
Rain
since 9 am
mm
Dir
 
Spd
km/h
Gust
km/h
Spd
kts
Gust
kts
21/11:30pm 5.3 2.8 3.8 90 0.6 NNE 6 6 3 3 1028.2 1028.3 0.0
21/11:00pm 6.0 3.6 4.3 89 0.7 N 6 7 3 4 1028.2 1028.3 0.0
21/10:30pm 6.5 4.6 4.8 89 0.7 N 4 4 2 2 1028.3 1028.4 0.0
21/10:00pm 6.7 4.4 4.9 88 0.8 N 6 6 3 3 1028.3 1028.4 0.0
21/09:30pm 7.5 5.7 5.6 88 0.8 NNE 4 4 2 2 1028.3 1028.4 0.0
21/09:00pm 8.5 6.6 6.5 87 0.9 NE 6 7 3 4 1028.2 1028.3 0.0
21/08:30pm 8.3 6.2 5.9 85 1.1 NE 6 7 3 4 1028.1 1028.2 0.0
21/08:00pm 8.2 7.2 5.5 83 1.2 CALM 0 0 0 0 1027.9 1028.0 0.0
21/07:30pm 9.0 8.1 5.9 81 1.4 CALM 0 0 0 0 1027.9 1028.0 0.0
21/07:00pm 8.8 7.3 5.2 78 1.6 WNW 2 4 1 2 1027.6 1027.7 0.0
21/06:30pm 10.5 8.9 6.5 76 1.9 NW 4 6 2 3 1027.4 1027.5 0.0
21/06:00pm 11.1 9.6 6.6 74 2.1 NW 4 4 2 2 1027.2 1027.3 0.0
21/05:30pm 11.7 10.2 6.6 71 2.4 N 4 7 2 4 1027.0 1027.1 0.0
21/05:00pm 12.6 10.8 7.1 69 2.6 NNE 6 11 3 6 1026.8 1026.9 0.0
21/04:30pm 12.9 11.3 7.8 71 2.5 SE 6 9 3 5 1026.5 1026.6 0.0
21/04:00pm 12.8 10.6 7.7 71 2.5 SSE 9 11 5 6 1026.4 1026.5 0.0
21/03:30pm 13.2 10.6 7.6 69 2.7 SSE 11 15 6 8 1026.4 1026.5 0.0
21/03:00pm 12.9 10.2 7.4 69 2.7 SE 11 15 6 8 1026.5 1026.6 0.0
21/02:30pm 13.3 11.1 7.7 69 2.8 SSE 9 13 5 7 1026.5 1026.6 0.0
21/02:00pm 12.8 10.1 7.5 70 2.6 SSE 11 17 6 9 1026.7 1026.8 0.0
21/01:30pm 12.6 10.7 7.5 71 2.5 SE 7 13 4 7 1027.1 1027.2 0.0
21/01:00pm 12.6 10.6 7.3 70 2.5 SE 7 11 4 6 1027.5 1027.6 0.0
21/12:30pm 13.0 11.1 7.7 70 2.6 SE 7 11 4 6 1027.8 1027.9 0.0
21/12:00pm 12.4 10.3 6.7 68 2.7 ESE 7 11 4 6 1028.2 1028.3 0.0
21/11:30am 13.4 11.5 7.4 67 2.9 ENE 7 13 4 7 1028.6 1028.7 0.0
21/11:00am 13.2 11.5 8.3 72 2.4 ENE 7 11 4 6 1028.9 1029.0 0.0
21/10:30am 12.7 11.4 9.2 79 1.8 NE 6 9 3 5 1028.9 1029.0 0.0
21/10:00am 12.0 10.5 9.2 83 1.4 ENE 7 11 4 6 1029.1 1029.2 0.0
21/09:30am 11.2 9.8 8.9 86 1.1 NE 6 9 3 5 1029.2 1029.3 0.0
21/09:00am 10.3 8.9 8.9 91 0.7 NE 6 9 3 5 1029.2 1029.3 0.0
21/08:30am 8.6 8.0 7.5 93 0.5 CALM 0 4 0 2 1029.2 1029.3 0.0
21/08:00am 7.7 6.9 6.6 93 0.5 CALM 0 2 0 1 1029.0 1029.1 0.0
21/07:30am 6.7 5.3 5.7 93 0.4 N 2 4 1 2 1028.7 1028.8 0.0
21/07:00am 6.4 4.6 5.2 92 0.5 N 4 4 2 2 1028.4 1028.5 0.0
21/06:30am 5.5 3.5 4.3 92 0.5 NNW 4 6 2 3 1028.1 1028.2 0.0
21/06:00am 5.5 3.1 4.2 91 0.5 N 6 6 3 3 1028.0 1028.1 0.0
21/05:30am 5.7 3.3 4.3 91 0.6 N 6 7 3 4 1027.9 1028.0 0.0
21/05:00am 6.4 4.5 5.0 91 0.6 NE 4 6 2 3 1028.0 1028.1 0.0
21/04:30am 6.9 4.7 5.4 90 0.7 N 6 7 3 4 1027.9 1028.0 0.0
21/04:00am 7.4 5.3 6.0 91 0.6 N 6 7 3 4 1028.0 1028.1 0.0
21/03:30am 7.2 5.8 5.7 90 0.7 N 2 4 1 2 1028.0 1028.1 0.0
21/03:00am 6.8 5.4 5.3 90 0.7 NNE 2 4 1 2 1028.1 1028.2 0.0
21/02:30am 6.5 4.6 4.8 89 0.7 NNE 4 7 2 4 1028.3 1028.4 0.0
21/02:00am 6.9 5.0 5.1 88 0.8 N 4 6 2 3 1028.5 1028.6 0.0
21/01:30am 8.6 7.4 6.6 87 0.9 N 2 6 1 3 1028.5 1028.6 0.0
21/01:00am 8.8 6.8 6.4 85 1.1 NNE 6 11 3 6 1028.5 1028.6 0.0
21/12:30am 8.4 6.6 5.5 82 1.3 NNE 4 7 2 4 1028.5 1028.6 0.0
21/12:00am 9.9 7.5 7.0 82 1.4 E 9 13 5 7 1028.4 1028.5 0.0
 
Date/Time
EST
Temp
°C
App
Temp
°C
Dew
Point
Rel
Hum
%
Delta-T
°C
Wind Press
QNH
hPa
Press
MSL
hPa
Rain
since 9 am
mm
Dir
 
Spd
km/h
Gust
km/h
Spd
kts
Gust
kts
20/11:30pm 10.1 7.3 7.0 81 1.5 ESE 11 15 6 8 1028.4 1028.5 0.0
20/11:00pm 9.6 7.1 6.5 81 1.4 ESE 9 11 5 6 1028.4 1028.5 0.0
20/10:30pm 10.2 7.1 7.1 81 1.5 ESE 13 20 7 11 1028.5 1028.6 0.0
20/10:00pm 10.1 7.7 7.0 81 1.5 E 9 15 5 8 1028.5 1028.6 0.0
20/09:30pm 10.2 7.8 7.1 81 1.5 E 9 15 5 8 1028.6 1028.7 0.0
20/09:00pm 9.6 7.4 6.3 80 1.5 SE 7 11 4 6 1028.6 1028.7 0.0
20/08:30pm 9.7 7.5 6.4 80 1.5 SE 7 9 4 5 1028.6 1028.7 0.0
20/08:00pm 9.6 7.4 6.1 79 1.6 SSE 7 9 4 5 1028.5 1028.6 0.0
20/07:30pm 9.3 7.0 5.7 78 1.6 SE 7 11 4 6 1028.5 1028.6 0.0
20/07:00pm 9.7 7.4 5.9 77 1.7 SE 7 11 4 6 1028.5 1028.6 0.0
20/06:30pm 9.8 7.1 5.8 76 1.8 SE 9 13 5 7 1028.4 1028.5 0.0
20/06:00pm 10.6 8.1 6.4 75 1.9 SSE 9 11 5 6 1028.2 1028.3 0.0
20/05:30pm 11.5 9.5 7.2 75 2.1 SSE 7 11 4 6 1028.1 1028.2 0.0
20/05:00pm 11.6 9.5 6.7 72 2.3 SSE 7 11 4 6 1027.9 1028.0 0.0
20/04:30pm 11.6 8.4 6.9 73 2.2 S 13 19 7 10 1027.7 1027.8 0.0
20/04:00pm 12.1 7.8 7.2 72 2.3 S 19 24 10 13 1027.7 1027.8 0.0
20/03:30pm 13.2 10.3 6.3 63 3.3 SSE 11 15 6 8 1027.6 1027.7 0.0
20/03:00pm 13.3 10.8 6.6 64 3.2 SSE 9 15 5 8 1027.3 1027.4 0.0
20/02:30pm 13.5 11.0 6.6 63 3.3 SSE 9 13 5 7 1027.3 1027.4 0.0
20/02:00pm 13.3 10.8 6.6 64 3.2 SE 9 15 5 8 1027.3 1027.4 0.0
20/01:30pm 13.0 10.9 6.6 65 3.1 S 7 15 4 8 1027.5 1027.6 0.0

Other Formats:

Comma delimited format used in spreadsheet applications
http://www.bom.gov.au/fwo/IDV60801/IDV60801.94830.axf

JavaScript Object Notation format (JSON) in row-major order
http://www.bom.gov.au/fwo/IDV60801/IDV60801.94830.json